• Join FlightAware (Why Join?)
  • Login
  • US Flag 
09:56PM EDT


 

Airport Tracker/Info


-or-


 

Live Flight TrackerFlight Track Log ✈ SWA1998 ✈ 14-May-2013 ✈ KDTW - KDEN

Flight Track Log - Related Links

Times and Time Zones

All times are in EDT time to prevent confusion due to time zone crossing. See the SWA1998 flight status page for this flight to view local times or setup timezone preferences in your user account.

Time Position Orientation Groundspeed Altitude Reporting Facility
EDT Latitude Longitude Course Direction KTS MPH feet Rate Location/Type
08:39PM 42.1994 -83.3608 226° Southwest 182 209 1,400  Level Cleveland Center
08:40PM 42.1561 -83.4206 226° Southwest 208 239 5,000 2,820 Climbing Cleveland Center
08:41PM 42.1333 -83.5036 250° West 253 291 7,700 2,700 Climbing Cleveland Center
08:42PM 42.1450 -83.5322 299° West 259 298 9,300 3,480 Climbing Cleveland Center
08:42PM 42.1628 -83.5694 303° West 251 289 10,900 1,980 Climbing Cleveland Center
08:43PM 42.1806 -83.6150 298° West 270 311 11,300 1,860 Climbing Cleveland Center
08:43PM 42.2022 -83.6608 303° West 289 333 12,800 1,800 Climbing Cleveland Center
08:44PM 42.2178 -83.7039 296° West 317 365 13,100 1,920 Climbing Cleveland Center
08:45PM 42.2608 -83.8069 299° West 317 365 15,800 2,460 Climbing Cleveland Center
08:46PM 42.3036 -83.9075 300° West 312 359 18,100 2,340 Climbing Cleveland Center
08:47PM 42.3467 -84.0081 300° West 312 359 20,500 2,160 Climbing Cleveland Center
08:48PM 42.3914 -84.1144 300° West 317 365 22,500 2,100 Climbing Cleveland Center
08:49PM 42.4272 -84.2319 292° West 327 376 24,700 1,500 Climbing Cleveland Center
08:50PM 42.4289 -84.3728 271° West 341 392 25,500 1,680 Climbing Cleveland Center
08:52PM 42.4408 -84.6992 273° West 382 440 30,100 1,980 Climbing Chicago Center
08:53PM 42.4444 -84.8378 272° West 372 428 31,900 960 Climbing Chicago Center
08:54PM 42.4469 -84.9761 271° West 368 423 32,100 540 Climbing Chicago Center
08:55PM 42.4503 -85.1156 272° West 371 427 33,100 1,020 Climbing Chicago Center
08:56PM 42.4519 -85.2511 271° West 364 419 34,300 1,080 Climbing Chicago Center
08:57PM 42.4550 -85.3883 272° West 364 419 35,400 840 Climbing Chicago Center
08:58PM 42.4575 -85.5528 271° West 364 419 36,100 300 Climbing Chicago Center
08:59PM 42.4594 -85.6894 271° West 363 418 36,100  Level Chicago Center
09:00PM 42.4622 -85.8269 272° West 364 419 36,100  Level Chicago Center
09:01PM 42.4631 -85.9669 271° West 368 423 36,100  Level Chicago Center
09:02PM 42.4639 -86.1050 271° West 367 422 36,100  Level Chicago Center
09:03PM 42.4469 -86.2447 261° West 372 428 36,100  Level Chicago Center
09:04PM 42.4297 -86.3839 261° West 375 432 36,100  Level Chicago Center
09:05PM 42.4089 -86.5528 261° West 377 434 36,100  Level Chicago Center
09:06PM 42.3900 -86.6944 260° West 376 433 36,100  Level Chicago Center
09:07PM 42.3750 -86.8378 262° West 383 441 36,100  Level Chicago Center
09:08PM 42.3561 -86.9803 260° West 387 445 36,100  Level Chicago Center
09:09PM 42.3350 -87.1217 259° West 387 445 36,100  Level Chicago Center
09:10PM 42.3164 -87.2664 260° West 392 451 36,100  Level Chicago Center
09:11PM 42.2922 -87.4411 259° West 394 453 36,100  Level Chicago Center
09:12PM 42.2725 -87.5844 260° West 393 452 36,100  Level Chicago Center
09:14PM 42.2528 -87.7300 260° West 396 456 36,100  Level Chicago Center
09:15PM 42.2333 -87.8692 259° West 385 443 36,100  Level Chicago Center
09:16PM 42.2256 -88.0058 266° West 374 430 36,100  Level Chicago Center
09:17PM 42.2375 -88.1711 276° West 373 429 36,100  Level Chicago Center
09:18PM 42.2478 -88.3089 276° West 372 428 36,100  Level Chicago Center
09:19PM 42.2589 -88.4481 276° West 377 434 36,100  Level Chicago Center
09:20PM 42.2689 -88.5883 276° West 377 434 36,100  Level Chicago Center
09:21PM 42.2786 -88.7308 275° West 383 441 36,100 -60 Level Chicago Center
09:22PM 42.2900 -88.8908 276° West 386 444 36,000  Descending Chicago Center
09:23PM 42.3000 -89.0367 275° West 389 448 36,100  Climbing Chicago Center
09:24PM 42.3106 -89.1803 276° West 385 443 36,100  Level Chicago Center
09:25PM 42.3200 -89.3250 275° West 385 443 36,100  Level Chicago Center
09:26PM 42.3303 -89.4911 275° West 381 438 36,100  Level Chicago Center
09:27PM 42.3392 -89.6347 275° West 382 440 36,100  Level Chicago Center
09:28PM 42.3469 -89.7792 274° West 384 442 36,100  Level Chicago Center
09:29PM 42.3569 -89.9281 275° West 385 443 36,100  Level Chicago Center
09:30PM 42.3675 -90.0733 276° West 389 448 36,100  Level Chicago Center
09:31PM 42.3747 -90.2172 274° West 387 445 36,100  Level Chicago Center
09:32PM 42.3828 -90.3611 274° West 387 445 36,100  Level Chicago Center
09:33PM 42.3906 -90.5053 274° West 388 447 36,100  Level Chicago Center
09:34PM 42.3986 -90.6508 274° West 390 449 36,100  Level Chicago Center
09:35PM 42.3894 -90.8261 266° West 398 458 36,100 -60 Level Chicago Center
09:36PM 42.3756 -90.9675 262° West 386 444 36,000  Descending Chicago Center
09:37PM 42.3606 -91.1133 262° West 391 450 36,100  Climbing Chicago Center
09:38PM 42.3450 -91.2583 262° West 393 452 36,100  Level Chicago Center
09:39PM 42.3306 -91.4022 262° West 390 449 36,100  Level Chicago Center
09:40PM 42.3147 -91.5483 262° West 393 452 36,100  Level Chicago Center
09:41PM 42.2994 -91.6908 262° West 388 447 36,100  Level Chicago Center
09:42PM 42.2817 -91.8617 262° West 384 442 36,100 -60 Level Chicago Center
09:43PM 42.2647 -92.0044 261° West 386 444 36,000  Descending Chicago Center
09:44PM 42.2497 -92.1486 262° West 388 447 36,100  Climbing Chicago Center
09:45PM 42.2400 -92.2350 261° West 387 445 36,100  Level Minneapolis Center
09:46PM 42.2203 -92.4053 261° West 386 444 36,100  Level Minneapolis Center
09:47PM 42.2039 -92.5500 261° West 390 449 36,100  Level Minneapolis Center
09:48PM 42.1872 -92.6908 261° West 388 447 36,100  Level Minneapolis Center
09:49PM 42.1697 -92.8347 261° West 390 449 36,100  Level Minneapolis Center
09:50PM 42.1531 -92.9775 261° West 390 449 36,100  Level Minneapolis Center
09:51PM 42.1361 -93.1214 261° West 391 450 36,100  Level Minneapolis Center
09:52PM 42.1181 -93.2633 260° West 388 447 36,100  Level Minneapolis Center
09:53PM 42.0972 -93.4375 261° West 396 456 36,100  Level Minneapolis Center
09:54PM 42.0792 -93.5822 261° West 396 456 36,100  Level Minneapolis Center
09:55PM 42.0608 -93.7256 260° West 394 453 36,100  Level Minneapolis Center
09:56PM 42.0419 -93.8708 260° West 390 449 36,100  Level Minneapolis Center
09:57PM 42.0253 -94.0178 261° West 397 457 36,100  Level Minneapolis Center
09:58PM 42.0050 -94.1633 259° West 398 458 36,100  Level Minneapolis Center
09:59PM 41.9856 -94.3100 260° West 401 461 36,100  Level Minneapolis Center
10:00PM 41.9669 -94.4558 260° West 399 459 36,100  Level Minneapolis Center
10:01PM 41.9428 -94.6319 260° West 402 463 36,100  Level Minneapolis Center
10:02PM 41.9242 -94.7783 260° West 400 460 36,100  Level Minneapolis Center
10:03PM 41.9033 -94.9244 259° West 401 461 36,100  Level Minneapolis Center
10:04PM 41.8839 -95.0703 260° West 398 458 36,100  Level Minneapolis Center
10:05PM 41.8631 -95.2178 259° West 402 463 36,100  Level Minneapolis Center
10:07PM 41.8428 -95.3639 259° West 401 461 36,100  Level Minneapolis Center
10:08PM 41.8217 -95.5114 259° West 404 465 36,100 -60 Level Minneapolis Center
10:09PM 41.8008 -95.6589 259° West 404 465 36,000  Descending Minneapolis Center
10:10PM 41.7786 -95.8056 259° West 403 464 36,100  Climbing Minneapolis Center
10:11PM 41.7575 -95.9522 259° West 404 465 36,100  Level Minneapolis Center
10:12PM 41.7308 -96.1292 259° West 406 467 36,100  Level Minneapolis Center
10:13PM 41.7089 -96.2761 259° West 407 468 36,100  Level Minneapolis Center
10:14PM 41.6869 -96.4242 259° West 408 470 36,100  Level Minneapolis Center
10:15PM 41.6639 -96.5725 258° West 409 471 36,100  Level Minneapolis Center
10:16PM 41.6414 -96.7189 258° West 406 467 36,100  Level Minneapolis Center
10:17PM 41.6175 -96.8683 258° West 410 472 36,100  Level Minneapolis Center
10:18PM 41.5950 -97.0161 259° West 409 471 36,100 -60 Level Minneapolis Center
10:19PM 41.5714 -97.1633 258° West 409 471 36,000  Descending Minneapolis Center
10:20PM 41.5478 -97.3103 258° West 406 467 36,100  Climbing Minneapolis Center
10:21PM 41.5197 -97.4869 258° West 407 468 36,000  Descending Minneapolis Center
10:22PM 41.4958 -97.6342 258° West 407 468 36,100  Climbing Minneapolis Center
10:23PM 41.4714 -97.7814 258° West 408 470 36,100  Level Minneapolis Center
10:24PM 41.4472 -97.9283 258° West 408 470 36,100  Level Minneapolis Center
10:25PM 41.4231 -98.0761 258° West 407 468 36,100  Level Minneapolis Center
10:26PM 41.3994 -98.2111 257° West 407 468 36,100  Level Minneapolis Center
10:27PM 41.3689 -98.3867 257° West 408 470 36,100 -60 Level Minneapolis Center
10:28PM 41.3383 -98.5128 252° West 408 470 36,000  Descending Minneapolis Center
10:29PM 41.3025 -98.6564 252° West 408 470 36,100  Climbing Minneapolis Center
10:30PM 41.2672 -98.8011 252° West 410 472 36,100  Level Minneapolis Center
10:31PM 41.2311 -98.9472 252° West 415 478 36,100  Level Minneapolis Center
10:32PM 41.1922 -99.0986 251° West 413 475 36,100  Level Denver Center
10:33PM 41.1564 -99.2414 252° West 411 473 36,100  Level Denver Center
10:34PM 41.1194 -99.3856 251° West 413 475 36,100  Level Denver Center
10:35PM 41.0819 -99.5403 252° West 414 476 36,100  Level Denver Center
10:36PM 41.0572 -99.6786 257° West 415 478 36,100  Level Denver Center
10:37PM 41.0264 -99.8489 257° West 416 479 36,100 480 Level Denver Center
10:38PM 40.9956 -100.0117 256° West 410 472 37,100 480 Climbing Denver Center
10:39PM 40.9697 -100.1525 256° West 410 472 37,100  Level Denver Center
10:40PM 40.9425 -100.2933 256° West 413 475 37,100  Level Denver Center
10:41PM 40.9111 -100.4581 256° West 414 476 37,100  Level Denver Center
10:42PM 40.8842 -100.6000 256° West 416 479 37,100  Level Denver Center
10:43PM 40.8544 -100.7428 255° West 420 483 37,100  Level Denver Center
10:44PM 40.8239 -100.9003 256° West 424 488 37,100  Level Denver Center
10:45PM 40.7911 -101.0669 255° West 421 484 37,100  Level Denver Center
10:46PM 40.7633 -101.2092 256° West 421 484 37,100  Level Denver Center
10:47PM 40.7289 -101.3756 255° West 422 486 37,100  Level Denver Center
10:48PM 40.7000 -101.5192 255° West 423 487 37,100  Level Denver Center
10:49PM 40.6719 -101.6633 256° West 424 488 37,100  Level Denver Center
10:50PM 40.6464 -101.7831 254° West 426 490 37,100  Level Denver Center
10:51PM 40.6069 -101.9739 255° West 424 488 37,100  Level Denver Center
10:52PM 40.5781 -102.1178 255° West 425 489 37,100  Level Denver Center
10:53PM 40.5422 -102.2850 254° West 426 490 37,100  Level Denver Center
10:54PM 40.5111 -102.4283 254° West 427 491 37,100  Level Denver Center
10:56PM 40.4761 -102.5972 255° West 429 494 37,100 -420 Level Denver Center
10:57PM 40.4397 -102.7633 254° West 426 490 36,200 -1,620 Descending Denver Center
10:58PM 40.4050 -102.9222 254° West 408 470 33,900 -2,100 Descending Denver Center
10:59PM 40.3767 -103.0550 254° West 396 456 32,000 -2,520 Descending Denver Center
11:00PM 40.3414 -103.2144 254° West 408 470 28,800 -2,700 Descending Denver Center
11:01PM 40.3117 -103.3481 254° West 402 463 26,500 -2,400 Descending Denver Center
11:02PM 40.2803 -103.4914 254° West 399 459 24,000 -2,340 Descending Denver Center
11:03PM 40.2519 -103.6197 254° West 386 444 21,800 -2,340 Descending Denver Center
11:04PM 40.2208 -103.7633 254° West 391 450 19,300 -1,740 Descending Denver Center
11:05PM 40.2014 -103.8844 258° West 342 394 18,300 -1,380 Descending Denver Center
11:06PM 40.2133 -103.9992 278° West 322 371 16,600 -1,740 Descending Denver Center
11:07PM 40.2258 -104.1228 278° West 320 368 14,800 -1,800 Descending Denver Center
11:08PM 40.2350 -104.2350 276° West 314 361 13,000 -1,440 Descending Denver Center
11:09PM 40.2461 -104.3447 278° West 308 354 11,900 -900 Descending Denver Center
11:10PM 40.2494 -104.4397 273° West 271 312 11,200 -900 Descending Denver Center
11:11PM 40.2239 -104.5294 250° West 245 282 10,100 -1,140 Descending Denver Center
11:12PM 40.1739 -104.5825 219° Southwest 253 291 9,000 -600 Descending Denver Center
11:13PM 40.1125 -104.6156 202° Southwest 241 277 9,000 -300 Level Denver Center
11:14PM 40.0603 -104.6431 202° Southwest 206 237 8,400 -540 Descending Denver Center
11:15PM 40.0069 -104.6714 202° Southwest 195 224 7,900 -900 Descending Denver Center
11:16PM 39.9656 -104.6864 196° South 163 188 6,500 -900 Descending Denver Center
11:17PM 39.9153 -104.6867 180° South 147 169 5,800 -540 Descending Denver Center
11:18PM 39.8731 -104.6875 181° South 144 166 5,400 -420 Descending Denver Center
11:20PM 39.8617 -104.6732 194° South  Level Estimated
11:27PM 39.8617 -104.6732 194° South  Level Estimated
11:28PM 39.8617 -104.6732 194° South  Level Estimated